Terminal Aerodrome Forecast
Issued by NWS

Home | Current Version | Previous Version | Text Only | Print | Product List | Glossary Off
Versions: 1 2 3 4 5 6 7 8 9 10 11 12 13 14 15

809
FTUS43 KMPX 260520
TAFRWF
TAF
KRWF 260520Z 2606/2706 21012KT P6SM SCT050 BKN090
     FM261400 26010KT P6SM BKN070
     FM261600 29012G18KT P6SM SCT050
     FM262300 31008KT P6SM BKN120=

USA.gov is the U.S. government's official web portal to all federal, state and local government web resources and services.